Aeroporto :
LOGIN :

Iscrizione | Disclaimer

   EN    FR    IT 

 










Sommario :    VFR   VFR Marginale   IFR   IFR Intensivo   IFR Molto Intensivo
Visibilità : 
Base nubi : 
>= 8 km
>= 3000ft
5 / 8 km
1000 / 3000 ft
1500m / 5 km
500 / 1000 ft
800 / 1500m
200 / 500 ft
< 800m
< 200 ft
Simboli :   Temporali  Nebbia  Neve Forte  Precipitazioni Forti  Vento > 20 kt
SIGMETs :   Varie  Temporali  Ghiacco  Turbolenza  Onda orograficha  Ceneri Vulcaniche







- Altitudine del aeroporto : 250 ft


LERI - Alcantarilla

ULTIMO METAR :
  • 201300Z 06007KT 020V080 4000 RA FEW004 SCT008 14/13 Q1013 NOSIG

METARs OBSOLETI :
  • 201200Z 01004KT 4000 RA FEW004 SCT008 14/13 Q1013 NOSIG
  • 201100Z 03005KT 4000 RA FEW005 SCT011 14/13 Q1013 NOSIG

TAF TAF LERI
Valido dal 20 a 12 ore il 20 a 21 ore UTC


201100Z 2012/2021 05012KT 9999 SCT020
TEMPO 2012/2018 4000 RA BKN010
Nessun NOTAM noto per questo aeroporto.
1 SIGMET conosciuto per la FIR Barcelona (LECB) :
 
Turbolenza severa
LECB SIGMET 6 VALID 201000/201400 LEVA
LECB BARCELONA FIR SEV TURB FCST WI N4040 W00050 - N4020 E00030 - N3740 W00020 - N3820 W00130 - N4040 W00050 SFC/FL090 STNR NC=



MetMap, La meteo Aeronautica in un colpo d'occhio ! - Copyright ORBIFLY Dicembre 2007 - Disclaimer

ORBIFLY MET'MAP TEAM :

Programmazione e sviluppo : Alexandra Zaïnal
Concezione e sviluppo : Baudouin d'Aumeries
Co-Programmazione e sviluppo : Marc-Olivier Méhu
Supporto tecnico e logistico : Manuel Goepfert
Aiuto per la traduzione : Arnaldo La Scala

Contatto : metmap@orbifly.com




FONTI E CREDITI :

   NOAA